Colmenar de Oreja, Spain
Current Conditions -  °F | °C
As of 4:00 PM on Monday 24 Nov 2014 (Local Time) from LEGT Reporting Station
Clear Clear  
Wind Chill: 64°   Ceiling: Unl
Heat Index: 64°   Visibility: 6mi
Dew Point: 48°   Wind: 2mph
Humidity: 56%   Direction: 100°E
Pressure: 30.03"   Gusts: NA
Location:  40.11°N, 3.39°W
Report Text: LEGT 241500Z 10002KT CAVOK 18/09 Q1017
Loading
Personal Weather Stations






























Interactive Weather Map New forecast layout! Learn more

10-Day Weather Forecast

Advertisements
Track Severe Weather on mobile